createdAt,value
2019-02-21T00:02:49.931Z,101032.56
2019-02-21T00:03:45.536Z,101027.72
2019-02-21T00:04:23.201Z,101034.17
2019-02-21T00:05:04.983Z,101031.48
2019-02-21T00:05:53.569Z,101038.75
2019-02-21T00:06:32.082Z,101037.94
2019-02-21T00:07:31.479Z,101039.55
2019-02-21T00:08:16.588Z,101038.75
2019-02-21T00:08:54.509Z,101036.86
2019-02-21T00:09:47.607Z,101037.70
2019-02-21T00:10:51.900Z,101043.07
2019-02-21T00:13:04.305Z,101039.02
2019-02-21T00:13:53.843Z,101043.91
2019-02-21T00:15:40.166Z,101050.63
2019-02-21T00:16:17.830Z,101048.20
2019-02-21T00:16:59.783Z,101044.95
2019-02-21T00:17:44.535Z,101050.60
2019-02-21T00:18:25.812Z,101046.04
2019-02-21T00:21:22.199Z,101055.16
2019-02-21T00:22:22.881Z,101055.95
2019-02-21T00:23:11.990Z,101058.33
2019-02-21T00:23:59.586Z,101063.47
2019-02-21T00:24:37.000Z,101063.99
2019-02-21T00:25:15.038Z,101069.12
2019-02-21T00:25:56.222Z,101068.58
2019-02-21T00:26:46.929Z,101069.63
2019-02-21T00:27:24.743Z,101067.73
2019-02-21T00:28:11.758Z,101067.44
2019-02-21T00:28:54.112Z,101070.41
2019-02-21T00:29:39.879Z,101071.19
2019-02-21T00:30:18.823Z,101069.81
2019-02-21T00:31:18.905Z,101077.06
2019-02-21T00:31:56.595Z,101079.73
2019-02-21T00:32:35.424Z,101070.55
2019-02-21T00:33:34.701Z,101074.30
2019-02-21T00:34:12.750Z,101081.30
2019-02-21T00:35:04.642Z,101079.66
2019-02-21T00:35:53.243Z,101082.34
2019-02-21T00:36:30.207Z,101087.71
2019-02-21T00:37:25.788Z,101087.15
2019-02-21T00:38:07.582Z,101088.20
2019-02-21T00:39:05.957Z,101090.86
2019-02-21T00:39:46.891Z,101093.80
2019-02-21T00:40:33.747Z,101096.25
2019-02-21T00:41:13.253Z,101097.82
2019-02-21T00:41:52.285Z,101096.16
2019-02-21T00:42:35.120Z,101098.02
2019-02-21T00:44:21.973Z,101096.08
2019-02-21T00:46:29.223Z,101100.41
2019-02-21T00:47:08.172Z,101102.78
2019-02-21T00:48:12.684Z,101107.06
2019-02-21T00:48:56.269Z,101104.86
2019-02-21T00:49:52.486Z,101106.73
2019-02-21T00:50:29.370Z,101110.48
2019-02-21T00:51:10.560Z,101107.16
2019-02-21T00:52:07.227Z,101104.98
2019-02-21T00:53:07.232Z,101105.19
2019-02-21T00:54:24.779Z,101112.75
2019-02-21T00:55:04.819Z,101105.42
2019-02-21T00:55:47.445Z,101115.39
2019-02-21T00:56:29.955Z,101115.66
2019-02-21T00:57:10.136Z,101118.30
2019-02-21T00:57:46.901Z,101116.15
2019-02-21T00:59:03.499Z,101119.38
2019-02-21T01:00:01.864Z,101117.70
2019-02-21T01:00:47.237Z,101120.41
2019-02-21T01:01:25.117Z,101120.41
2019-02-21T01:02:05.743Z,101120.70
2019-02-21T01:02:43.354Z,101120.70
2019-02-21T01:03:22.130Z,101128.98
2019-02-21T01:04:00.750Z,101127.59
2019-02-21T01:04:47.369Z,101134.59
2019-02-21T01:05:27.774Z,101131.83
2019-02-21T01:06:11.163Z,101131.83
2019-02-21T01:06:49.731Z,101133.69
2019-02-21T01:07:30.720Z,101133.38
2019-02-21T01:08:16.157Z,101132.83
2019-02-21T01:08:58.170Z,101141.10
2019-02-21T01:09:35.932Z,101141.10
2019-02-21T01:10:12.519Z,101135.34
2019-02-21T01:10:55.685Z,101135.34
2019-02-21T01:11:37.188Z,101135.30
2019-02-21T01:12:20.513Z,101135.30
2019-02-21T01:13:04.858Z,101143.97
2019-02-21T01:14:05.207Z,101142.00
2019-02-21T01:15:02.783Z,101133.88
2019-02-21T01:15:51.955Z,101145.41
2019-02-21T01:16:30.782Z,101145.41
2019-02-21T01:17:14.872Z,101141.60
2019-02-21T01:18:49.784Z,101148.00
2019-02-21T01:19:30.428Z,101146.91
2019-02-21T01:20:30.372Z,101145.73
2019-02-21T01:21:06.868Z,101146.28
2019-02-21T01:21:52.419Z,101146.28
2019-02-21T01:22:47.845Z,101152.42
2019-02-21T01:23:30.321Z,101151.87
2019-02-21T01:24:08.295Z,101153.70
2019-02-21T01:25:04.770Z,101155.78
2019-02-21T01:25:57.869Z,101155.78
2019-02-21T01:26:44.579Z,101166.49
2019-02-21T01:27:21.433Z,101166.49
2019-02-21T01:28:02.855Z,101162.37
2019-02-21T01:28:53.992Z,101152.14
2019-02-21T01:29:52.806Z,101163.32
2019-02-21T01:30:30.240Z,101155.53
2019-02-21T01:31:08.317Z,101158.92
2019-02-21T01:31:59.658Z,101166.16
2019-02-21T01:33:04.794Z,101155.03
2019-02-21T01:33:42.454Z,101167.08
2019-02-21T01:34:53.778Z,101167.08
2019-02-21T01:35:39.021Z,101171.57
2019-02-21T01:36:31.161Z,101171.57
2019-02-21T01:37:25.110Z,101168.36
2019-02-21T01:38:03.772Z,101174.28
2019-02-21T01:38:43.820Z,101174.28
2019-02-21T01:39:25.393Z,101168.86
2019-02-21T01:40:03.750Z,101161.83
2019-02-21T01:40:46.634Z,101173.38
2019-02-21T01:41:27.843Z,101167.70
2019-02-21T01:42:26.285Z,101173.06
2019-02-21T01:43:03.433Z,101178.66
2019-02-21T01:43:47.552Z,101178.66
2019-02-21T01:44:24.334Z,101173.48
2019-02-21T01:45:02.752Z,101175.80
2019-02-21T01:45:52.015Z,101177.45
2019-02-21T01:46:31.256Z,101178.22
2019-02-21T01:47:19.632Z,101179.00
2019-02-21T01:48:18.144Z,101181.38
2019-02-21T01:49:06.331Z,101175.09
2019-02-21T01:50:20.471Z,101181.58
2019-02-21T01:51:04.595Z,101176.11
2019-02-21T01:51:51.913Z,101169.23
2019-02-21T01:53:02.900Z,101177.81
2019-02-21T01:53:45.409Z,101173.34
2019-02-21T01:54:30.911Z,101175.14
2019-02-21T01:55:20.245Z,101168.00
2019-02-21T01:56:11.513Z,101169.30
2019-02-21T01:57:16.844Z,101174.48
2019-02-21T01:58:11.595Z,101174.71
2019-02-21T01:59:22.954Z,101172.65
2019-02-21T02:01:07.640Z,101180.44
2019-02-21T02:01:37.678Z,101176.76
2019-02-21T02:02:15.302Z,101176.86
2019-02-21T02:04:30.628Z,101185.00
2019-02-21T02:05:10.505Z,101184.70
2019-02-21T02:06:09.807Z,101188.41
2019-02-21T02:06:48.379Z,101184.09
2019-02-21T02:07:38.130Z,101187.48
2019-02-21T02:08:14.405Z,101181.39
2019-02-21T02:09:00.396Z,101177.27
2019-02-21T02:09:59.552Z,101180.48
2019-02-21T02:10:39.575Z,101177.77
2019-02-21T02:11:32.173Z,101179.58
2019-02-21T02:13:21.664Z,101180.33
2019-02-21T02:14:17.094Z,101186.20
2019-02-21T02:15:01.044Z,101182.81
2019-02-21T02:15:39.657Z,101184.53
2019-02-21T02:16:33.490Z,101186.02
2019-02-21T02:17:28.801Z,101183.45
2019-02-21T02:18:08.181Z,101181.50
2019-02-21T02:19:47.030Z,101181.77
2019-02-21T02:20:44.433Z,101184.86
2019-02-21T02:22:47.317Z,101176.03
2019-02-21T02:23:43.087Z,101182.89
2019-02-21T02:24:24.312Z,101176.71
2019-02-21T02:25:49.063Z,101177.14
2019-02-21T02:27:47.587Z,101182.20
2019-02-21T02:29:09.211Z,101185.54
2019-02-21T02:30:01.748Z,101183.56
2019-02-21T02:31:42.188Z,101183.72
2019-02-21T02:32:20.660Z,101182.36
2019-02-21T02:33:22.220Z,101179.64
2019-02-21T02:34:22.324Z,101185.94
2019-02-21T02:35:39.855Z,101183.56
2019-02-21T02:36:30.511Z,101180.84
2019-02-21T02:37:23.146Z,101180.02
2019-02-21T02:38:31.544Z,101179.88
2019-02-21T02:39:10.186Z,101181.92
2019-02-21T02:39:53.576Z,101177.41
2019-02-21T02:40:42.021Z,101181.11
2019-02-21T02:41:43.855Z,101181.50
2019-02-21T02:42:52.538Z,101177.11
2019-02-21T02:43:49.325Z,101182.69
2019-02-21T02:44:39.962Z,101176.31
2019-02-21T02:45:19.207Z,101178.30
2019-02-21T02:45:59.846Z,101178.79
2019-02-21T02:46:43.806Z,101179.77
2019-02-21T02:48:28.131Z,101178.20
2019-02-21T02:49:19.688Z,101180.12
2019-02-21T02:50:30.813Z,101181.89
2019-02-21T02:51:12.759Z,101178.27
2019-02-21T02:52:26.665Z,101176.83
2019-02-21T02:53:24.248Z,101178.99
2019-02-21T02:54:03.533Z,101171.77
2019-02-21T02:54:48.830Z,101179.73
2019-02-21T02:55:28.374Z,101177.08
2019-02-21T02:56:07.417Z,101176.97
2019-02-21T02:56:44.519Z,101175.55
2019-02-21T02:57:25.379Z,101176.27
2019-02-21T02:59:06.846Z,101171.66
2019-02-21T02:59:48.197Z,101177.62
2019-02-21T03:00:26.144Z,101167.30
2019-02-21T03:01:12.577Z,101176.74
2019-02-21T03:02:08.099Z,101173.47
2019-02-21T03:03:00.595Z,101168.47
2019-02-21T03:04:10.299Z,101171.36
2019-02-21T03:04:48.627Z,101170.23
2019-02-21T03:05:31.780Z,101170.41
2019-02-21T03:06:10.413Z,101169.77
2019-02-21T03:07:09.444Z,101164.81
2019-02-21T03:08:11.009Z,101170.11
2019-02-21T03:08:50.610Z,101160.94
2019-02-21T03:09:29.300Z,101163.59
2019-02-21T03:10:09.300Z,101171.59
2019-02-21T03:10:53.783Z,101170.16
2019-02-21T03:11:32.522Z,101163.91
2019-02-21T03:12:15.988Z,101167.12
2019-02-21T03:13:16.272Z,101168.41
2019-02-21T03:14:00.575Z,101168.08
2019-02-21T03:14:57.882Z,101159.63
2019-02-21T03:15:39.523Z,101158.77
2019-02-21T03:16:25.524Z,101161.74
2019-02-21T03:18:43.861Z,101158.38
2019-02-21T03:19:21.954Z,101165.59
2019-02-21T03:20:00.618Z,101159.73
2019-02-21T03:20:48.222Z,101156.62
2019-02-21T03:21:30.410Z,101163.42
2019-02-21T03:22:27.230Z,101158.54
2019-02-21T03:23:07.999Z,101160.46
2019-02-21T03:23:45.464Z,101160.22
2019-02-21T03:24:45.529Z,101161.27
2019-02-21T03:25:22.730Z,101156.94
2019-02-21T03:26:06.892Z,101156.45
2019-02-21T03:27:56.338Z,101156.77
2019-02-21T03:28:45.712Z,101154.30
2019-02-21T03:29:25.844Z,101156.38
2019-02-21T03:30:03.655Z,101153.73
2019-02-21T03:30:43.831Z,101148.61
2019-02-21T03:31:26.808Z,101151.81
2019-02-21T03:32:04.329Z,101154.21
2019-02-21T03:32:46.289Z,101147.24
2019-02-21T03:33:28.374Z,101152.69
2019-02-21T03:34:05.980Z,101147.72
2019-02-21T03:34:54.825Z,101148.28
2019-02-21T03:35:54.093Z,101143.16
2019-02-21T03:36:32.197Z,101144.12
2019-02-21T03:37:14.383Z,101146.68
2019-02-21T03:37:52.819Z,101142.03
2019-02-21T03:38:35.336Z,101136.19
2019-02-21T03:39:25.046Z,101146.15
2019-02-21T03:40:06.157Z,101143.16
2019-02-21T03:40:50.778Z,101143.58
2019-02-21T03:41:27.870Z,101146.95
2019-02-21T03:42:04.876Z,101146.15
2019-02-21T03:42:44.472Z,101144.52
2019-02-21T03:43:21.947Z,101139.23
2019-02-21T03:44:00.709Z,101138.51
2019-02-21T03:44:59.443Z,101137.63
2019-02-21T03:45:39.088Z,101141.08
2019-02-21T03:46:17.149Z,101144.92
2019-02-21T03:47:03.571Z,101144.92
2019-02-21T03:47:50.642Z,101136.05
2019-02-21T03:48:37.960Z,101136.30
2019-02-21T03:49:14.943Z,101130.41
2019-02-21T03:50:01.155Z,101134.66
2019-02-21T03:50:37.981Z,101125.53
2019-02-21T03:51:14.724Z,101124.89
2019-02-21T03:51:52.875Z,101127.86
2019-02-21T03:52:40.365Z,101127.30
2019-02-21T03:53:24.006Z,101127.30
2019-02-21T03:54:17.130Z,101127.30
2019-02-21T03:54:53.484Z,101121.92
2019-02-21T03:55:45.962Z,101124.09
2019-02-21T03:56:34.846Z,101120.33
2019-02-21T03:57:11.086Z,101121.37
2019-02-21T03:57:55.821Z,101117.84
2019-02-21T03:58:33.820Z,101116.33
2019-02-21T03:59:18.072Z,101115.69
2019-02-21T04:00:07.877Z,101115.92
2019-02-21T04:00:48.672Z,101115.28
2019-02-21T04:01:47.715Z,101115.92
2019-02-21T04:02:26.677Z,101108.73
2019-02-21T04:03:14.526Z,101113.33
2019-02-21T04:03:52.299Z,101111.92
2019-02-21T04:04:52.878Z,101109.35
2019-02-21T04:05:38.707Z,101108.70
2019-02-21T04:06:23.033Z,101108.15
2019-02-21T04:07:07.205Z,101109.19
2019-02-21T04:08:00.612Z,101103.58
2019-02-21T04:08:40.784Z,101104.62
2019-02-21T04:09:19.382Z,101108.72
2019-02-21T04:10:08.749Z,101103.99
2019-02-21T04:11:00.273Z,101108.80
2019-02-21T04:11:37.724Z,101103.41
2019-02-21T04:13:40.209Z,101107.26
2019-02-21T04:14:17.774Z,101100.13
2019-02-21T04:14:58.606Z,101095.73
2019-02-21T04:15:40.901Z,101096.05
2019-02-21T04:16:23.845Z,101098.94
2019-02-21T04:17:04.665Z,101097.97
2019-02-21T04:18:40.854Z,101096.60
2019-02-21T04:19:27.093Z,101095.73
2019-02-21T04:20:12.030Z,101093.88
2019-02-21T04:20:48.418Z,101091.48
2019-02-21T04:21:31.319Z,101090.22
2019-02-21T04:22:09.537Z,101090.05
2019-02-21T04:22:46.375Z,101088.68
2019-02-21T04:23:36.247Z,101085.55
2019-02-21T04:24:19.663Z,101089.16
2019-02-21T04:24:55.950Z,101095.26
2019-02-21T04:25:40.202Z,101087.02
2019-02-21T04:26:30.557Z,101082.93
2019-02-21T04:27:36.452Z,101081.86
2019-02-21T04:28:16.939Z,101083.21
2019-02-21T04:29:34.942Z,101079.12
2019-02-21T04:30:14.168Z,101081.00
2019-02-21T04:30:57.869Z,101075.62
2019-02-21T04:31:45.130Z,101072.72
2019-02-21T04:32:29.376Z,101076.64
2019-02-21T04:33:50.190Z,101074.30
2019-02-21T04:34:45.123Z,101069.42
2019-02-21T04:35:24.345Z,101066.58
2019-02-21T04:36:05.636Z,101063.67
2019-02-21T04:37:09.494Z,101066.08
2019-02-21T04:37:45.817Z,101065.84
2019-02-21T04:38:25.905Z,101063.97
2019-02-21T04:39:10.327Z,101060.59
2019-02-21T04:39:51.360Z,101059.14
2019-02-21T04:40:56.271Z,101061.33
2019-02-21T04:41:38.776Z,101059.31
2019-02-21T04:42:32.505Z,101054.39
2019-02-21T04:43:41.181Z,101053.97
2019-02-21T04:44:43.536Z,101055.66
2019-02-21T04:45:21.708Z,101046.97
2019-02-21T04:46:42.056Z,101050.16
2019-02-21T04:48:48.961Z,101044.98
2019-02-21T04:49:48.682Z,101039.68
2019-02-21T04:50:29.635Z,101040.81
2019-02-21T04:51:42.556Z,101035.67
2019-02-21T04:52:23.084Z,101040.39
2019-02-21T04:53:13.995Z,101043.61
2019-02-21T04:54:17.303Z,101036.53
2019-02-21T04:55:16.982Z,101039.20
2019-02-21T04:56:15.084Z,101032.39
2019-02-21T04:56:59.188Z,101030.79
2019-02-21T04:57:52.243Z,101034.17
2019-02-21T04:59:06.681Z,101030.41
2019-02-21T05:00:18.691Z,101027.36
2019-02-21T05:01:26.620Z,101021.11
2019-02-21T05:02:09.353Z,101022.19
2019-02-21T05:03:50.867Z,101019.54
2019-02-21T05:04:31.912Z,101021.38
2019-02-21T05:05:12.380Z,101014.31
2019-02-21T05:05:55.818Z,101018.02
2019-02-21T05:06:37.335Z,101016.89
2019-02-21T05:07:13.434Z,101013.97
2019-02-21T05:07:49.921Z,101016.23
2019-02-21T05:08:40.722Z,101009.87
2019-02-21T05:09:39.495Z,101010.11
2019-02-21T05:10:19.148Z,101018.95
2019-02-21T05:11:01.034Z,101007.67
2019-02-21T05:11:51.414Z,101011.59
2019-02-21T05:14:16.600Z,101009.34
2019-02-21T05:15:26.780Z,101004.61
2019-02-21T05:16:31.159Z,101003.06
2019-02-21T05:17:11.835Z,100998.30
2019-02-21T05:18:17.457Z,101000.77
2019-02-21T05:19:21.282Z,101003.63
2019-02-21T05:20:01.121Z,100990.92
2019-02-21T05:21:10.184Z,100993.45
2019-02-21T05:22:11.480Z,100990.86
2019-02-21T05:22:51.366Z,100989.40
2019-02-21T05:23:29.932Z,100988.53
2019-02-21T05:24:24.145Z,100988.77
2019-02-21T05:25:06.527Z,100985.94
2019-02-21T05:26:17.997Z,100991.39
2019-02-21T05:27:36.367Z,100988.56
2019-02-21T05:28:31.180Z,100982.11
2019-02-21T05:29:34.200Z,100976.55
2019-02-21T05:30:23.048Z,100985.70
2019-02-21T05:31:16.004Z,100980.04
2019-02-21T05:32:28.081Z,100976.17
2019-02-21T05:33:27.356Z,100987.16
2019-02-21T05:35:31.286Z,100979.56
2019-02-21T05:36:45.971Z,100980.75
2019-02-21T05:37:57.087Z,100979.41
2019-02-21T05:39:13.958Z,100976.00
2019-02-21T05:41:47.949Z,100979.89
2019-02-21T05:42:45.707Z,100966.28
2019-02-21T05:45:23.611Z,100967.16
2019-02-21T05:46:37.457Z,100962.37
2019-02-21T05:49:07.707Z,100960.33
2019-02-21T05:50:36.076Z,100964.70
2019-02-21T05:53:51.659Z,100952.41
2019-02-21T05:55:43.496Z,100955.77
2019-02-21T05:56:49.936Z,100948.53
2019-02-21T05:58:08.184Z,100946.28
2019-02-21T05:59:42.583Z,100944.50
2019-02-21T06:02:28.283Z,100939.62
2019-02-21T06:04:58.966Z,100937.75
2019-02-21T06:07:46.691Z,100928.30
2019-02-21T06:12:36.210Z,100917.20
2019-02-21T06:13:40.381Z,100920.52
2019-02-21T06:14:56.107Z,100914.20
2019-02-21T06:16:32.573Z,100913.08
2019-02-21T06:17:45.191Z,100914.43
2019-02-21T06:19:08.435Z,100909.17
2019-02-21T06:21:50.760Z,100905.18
2019-02-21T06:24:26.262Z,100896.88
2019-02-21T06:27:26.515Z,100891.48
2019-02-21T06:28:33.633Z,100891.66
2019-02-21T06:29:25.679Z,100886.83
2019-02-21T06:30:08.861Z,100892.14
2019-02-21T06:30:57.173Z,100886.97
2019-02-21T06:31:46.681Z,100881.55
2019-02-21T06:32:32.797Z,100879.97
2019-02-21T06:35:21.049Z,100877.90
2019-02-21T06:36:07.930Z,100879.44
2019-02-21T06:36:56.069Z,100877.84
2019-02-21T06:37:37.779Z,100872.48
2019-02-21T06:39:13.198Z,100870.72
2019-02-21T06:39:53.473Z,100863.26
2019-02-21T06:40:40.001Z,100872.23
2019-02-21T06:41:23.037Z,100864.70
2019-02-21T06:42:01.125Z,100870.00
2019-02-21T06:42:58.869Z,100864.66
2019-02-21T06:43:38.057Z,100864.41
2019-02-21T06:44:22.130Z,100859.63
2019-02-21T06:45:08.575Z,100855.62
2019-02-21T06:45:58.013Z,100861.06
2019-02-21T06:46:36.555Z,100854.97
2019-02-21T06:47:25.392Z,100852.25
2019-02-21T06:48:22.705Z,100855.77
2019-02-21T06:48:59.585Z,100857.69
2019-02-21T06:49:58.783Z,100850.65
2019-02-21T06:50:39.684Z,100850.65
2019-02-21T06:51:48.895Z,100849.62
2019-02-21T06:52:28.292Z,100846.01
2019-02-21T06:53:08.566Z,100840.23
2019-02-21T06:54:08.885Z,100838.31
2019-02-21T06:54:56.664Z,100840.95
2019-02-21T06:55:35.036Z,100839.77
2019-02-21T06:56:29.604Z,100843.61
2019-02-21T06:57:11.607Z,100836.24
2019-02-21T06:58:19.405Z,100839.29
2019-02-21T06:59:07.896Z,100833.61
2019-02-21T07:00:07.534Z,100835.20
2019-02-21T07:00:50.828Z,100829.67
2019-02-21T07:01:29.500Z,100830.29
2019-02-21T07:02:09.183Z,100830.67
2019-02-21T07:02:51.089Z,100832.36
2019-02-21T07:03:29.104Z,100826.58
2019-02-21T07:04:14.661Z,100821.13
2019-02-21T07:05:17.304Z,100823.19
2019-02-21T07:06:04.997Z,100824.59
2019-02-21T07:07:22.609Z,100823.59
2019-02-21T07:10:07.493Z,100817.48
2019-02-21T07:10:49.315Z,100808.65
2019-02-21T07:12:31.113Z,100801.58
2019-02-21T07:13:35.029Z,100805.87
2019-02-21T07:14:13.097Z,100806.53
2019-02-21T07:14:53.516Z,100799.11
2019-02-21T07:15:34.014Z,100801.60
2019-02-21T07:16:18.731Z,100792.73
2019-02-21T07:18:07.709Z,100796.45
2019-02-21T07:19:07.541Z,100798.38
2019-02-21T07:20:07.438Z,100791.89
2019-02-21T07:20:47.301Z,100792.45
2019-02-21T07:21:32.589Z,100794.93
2019-02-21T07:22:24.780Z,100796.09
2019-02-21T07:23:45.170Z,100794.37
2019-02-21T07:24:28.396Z,100793.10
2019-02-21T07:25:56.855Z,100786.48
2019-02-21T07:26:34.843Z,100787.05
2019-02-21T07:27:53.885Z,100779.53
2019-02-21T07:28:35.254Z,100781.46
2019-02-21T07:29:33.581Z,100789.50
2019-02-21T07:30:32.371Z,100782.84
2019-02-21T07:32:39.092Z,100785.48
2019-02-21T07:34:39.384Z,100784.30
2019-02-21T07:35:17.139Z,100776.83
2019-02-21T07:36:10.870Z,100775.23
2019-02-21T07:37:33.098Z,100773.16
2019-02-21T07:40:08.470Z,100779.11
2019-02-21T07:40:58.869Z,100775.83
2019-02-21T07:42:33.510Z,100772.55
2019-02-21T07:44:59.732Z,100766.16
2019-02-21T07:45:50.045Z,100757.63
2019-02-21T07:47:35.180Z,100758.42
2019-02-21T07:50:17.755Z,100750.35
2019-02-21T07:51:02.139Z,100744.48
2019-02-21T07:52:05.466Z,100742.73
2019-02-21T07:53:29.727Z,100743.46
2019-02-21T07:54:17.037Z,100739.19
2019-02-21T07:55:44.723Z,100734.44
2019-02-21T07:58:03.991Z,100731.33
2019-02-21T07:59:48.271Z,100733.88
2019-02-21T08:01:00.153Z,100732.55
2019-02-21T08:02:05.281Z,100736.91
2019-02-21T08:07:08.148Z,100723.65
2019-02-21T08:07:53.766Z,100719.00
2019-02-21T08:09:01.695Z,100715.47
2019-02-21T08:10:05.104Z,100712.19
2019-02-21T08:13:27.471Z,100710.02
2019-02-21T08:14:30.384Z,100706.04
2019-02-21T08:16:21.670Z,100705.58
2019-02-21T08:22:22.810Z,100703.78
2019-02-21T08:23:26.058Z,100701.85
2019-02-21T08:24:57.199Z,100699.05
2019-02-21T08:27:28.482Z,100689.82
2019-02-21T08:28:06.664Z,100686.30
2019-02-21T08:28:57.642Z,100692.64
2019-02-21T08:30:06.750Z,100693.60
2019-02-21T08:30:47.437Z,100691.11
2019-02-21T08:31:48.700Z,100695.20
2019-02-21T08:32:55.742Z,100692.06
2019-02-21T08:35:25.396Z,100693.45
2019-02-21T08:36:15.258Z,100688.82
2019-02-21T08:40:24.925Z,100689.35
2019-02-21T08:41:03.058Z,100683.56
2019-02-21T08:42:35.690Z,100688.58
2019-02-21T08:43:14.274Z,100680.39
2019-02-21T08:44:23.148Z,100677.79
2019-02-21T08:45:17.739Z,100680.41
2019-02-21T08:46:01.703Z,100674.50
2019-02-21T08:46:47.228Z,100678.23
2019-02-21T08:47:47.471Z,100675.06
2019-02-21T08:49:01.353Z,100679.05
2019-02-21T08:50:42.268Z,100669.31
2019-02-21T08:54:59.829Z,100668.10
2019-02-21T08:55:50.153Z,100670.03
2019-02-21T08:59:29.916Z,100681.36
2019-02-21T09:00:14.694Z,100679.95
2019-02-21T09:01:28.235Z,100679.49
2019-02-21T09:03:23.191Z,100673.58
2019-02-21T09:04:26.059Z,100674.25
2019-02-21T09:05:09.533Z,100685.81
2019-02-21T09:06:25.177Z,100679.10
2019-02-21T09:07:39.266Z,100683.59
2019-02-21T09:08:33.085Z,100686.17
2019-02-21T09:09:26.194Z,100681.28
2019-02-21T09:10:36.334Z,100688.30
2019-02-21T09:11:28.238Z,100683.81
2019-02-21T09:12:15.582Z,100671.47
2019-02-21T09:12:57.363Z,100673.36
2019-02-21T09:13:41.797Z,100673.78
2019-02-21T09:14:49.012Z,100671.99
2019-02-21T09:16:31.150Z,100673.78
2019-02-21T09:17:27.823Z,100660.70
2019-02-21T09:18:25.156Z,100665.63
2019-02-21T09:21:13.076Z,100663.97
2019-02-21T09:21:53.535Z,100664.11
2019-02-21T09:22:34.808Z,100664.77
2019-02-21T09:23:45.326Z,100668.20
2019-02-21T09:26:02.986Z,100673.80
2019-02-21T09:26:50.056Z,100673.80
2019-02-21T09:27:49.093Z,100675.87
2019-02-21T09:28:35.207Z,100675.34
2019-02-21T09:29:23.094Z,100676.43
2019-02-21T09:30:11.604Z,100674.36
2019-02-21T09:30:58.622Z,100671.41
2019-02-21T09:31:40.430Z,100679.10
2019-02-21T09:33:37.137Z,100672.06
2019-02-21T09:34:21.064Z,100672.95
2019-02-21T09:35:21.589Z,100667.28
2019-02-21T09:35:58.417Z,100664.55
2019-02-21T09:37:05.346Z,100662.95
2019-02-21T09:37:42.433Z,100660.24
2019-02-21T09:38:59.612Z,100651.61
2019-02-21T09:39:36.918Z,100652.73
2019-02-21T09:40:42.664Z,100646.80
2019-02-21T09:42:22.287Z,100641.34
2019-02-21T09:42:59.777Z,100642.23
2019-02-21T09:43:46.586Z,100646.97
2019-02-21T09:44:28.504Z,100645.84
2019-02-21T09:45:04.754Z,100646.41
2019-02-21T09:45:46.930Z,100644.25
2019-02-21T09:46:37.455Z,100643.13
2019-02-21T09:47:33.027Z,100643.13
2019-02-21T09:48:14.722Z,100628.17
2019-02-21T09:48:53.908Z,100628.17
2019-02-21T09:49:31.390Z,100625.22
2019-02-21T09:50:09.579Z,100620.24
2019-02-21T09:51:18.126Z,100625.45
2019-02-21T09:52:00.422Z,100620.34
2019-02-21T09:52:40.764Z,100625.87
2019-02-21T09:53:21.878Z,100631.88
2019-02-21T09:54:09.146Z,100634.45
2019-02-21T09:54:53.349Z,100633.09
2019-02-21T09:55:36.977Z,100643.49
2019-02-21T09:56:29.809Z,100645.98
2019-02-21T09:57:12.446Z,100650.86
2019-02-21T09:57:42.264Z,100655.50
2019-02-21T09:58:38.345Z,100654.13
2019-02-21T09:59:28.850Z,100659.58
2019-02-21T10:00:15.035Z,100659.58
2019-02-21T10:00:57.408Z,100656.86
2019-02-21T10:01:39.787Z,100661.50
2019-02-21T10:02:26.607Z,100659.34
2019-02-21T10:03:04.486Z,100661.73
2019-02-21T10:03:40.979Z,100655.50
2019-02-21T10:04:31.630Z,100659.02
2019-02-21T10:05:06.659Z,100660.70
2019-02-21T10:05:49.865Z,100658.54
2019-02-21T10:06:41.219Z,100666.79
2019-02-21T10:08:01.432Z,100672.23
2019-02-21T10:08:40.635Z,100675.33
2019-02-21T10:10:03.526Z,100681.09
2019-02-21T10:10:55.841Z,100681.33
2019-02-21T10:11:37.758Z,100689.81
2019-02-21T10:12:19.256Z,100695.01
2019-02-21T10:13:32.110Z,100698.29
2019-02-21T10:14:09.102Z,100702.69
2019-02-21T10:15:06.274Z,100706.30
2019-02-21T10:16:04.637Z,100704.94
2019-02-21T10:16:40.667Z,100705.08
2019-02-21T10:17:31.876Z,100714.83
2019-02-21T10:18:58.156Z,100704.75
2019-02-21T10:19:54.159Z,100709.16
2019-02-21T10:20:38.003Z,100703.01
2019-02-21T10:21:15.654Z,100698.22
2019-02-21T10:22:07.976Z,100694.70
2019-02-21T10:22:47.545Z,100691.50
2019-02-21T10:23:43.508Z,100690.20
2019-02-21T10:24:57.588Z,100685.41
2019-02-21T10:26:36.504Z,100680.14
2019-02-21T10:27:16.778Z,100686.70
2019-02-21T10:27:59.042Z,100681.27
2019-02-21T10:28:45.041Z,100679.42
2019-02-21T10:29:22.021Z,100682.14
2019-02-21T10:30:23.697Z,100677.59
2019-02-21T10:31:04.339Z,100681.11
2019-02-21T10:31:52.297Z,100680.07
2019-02-21T10:32:31.947Z,100680.31
2019-02-21T10:33:09.556Z,100685.19
2019-02-21T10:33:53.302Z,100680.55
2019-02-21T10:34:59.331Z,100681.91
2019-02-21T10:35:47.762Z,100685.98
2019-02-21T10:36:24.277Z,100681.67
2019-02-21T10:37:03.248Z,100683.03
2019-02-21T10:37:40.946Z,100685.98
2019-02-21T10:38:22.206Z,100692.54
2019-02-21T10:39:04.049Z,100687.34
2019-02-21T10:40:19.821Z,100688.70
2019-02-21T10:41:09.033Z,100689.27
2019-02-21T10:41:48.015Z,100690.70
2019-02-21T10:42:28.782Z,100684.15
2019-02-21T10:43:08.451Z,100689.02
2019-02-21T10:44:06.031Z,100687.10
2019-02-21T10:45:03.574Z,100687.10
2019-02-21T10:46:00.375Z,100687.10
2019-02-21T10:46:42.280Z,100688.46
2019-02-21T10:47:30.914Z,100687.10
2019-02-21T10:48:08.030Z,100688.70
2019-02-21T10:49:07.598Z,100688.46
2019-02-21T10:49:46.627Z,100688.46
2019-02-21T10:50:24.473Z,100689.58
2019-02-21T10:51:04.978Z,100697.98
2019-02-21T10:52:03.897Z,100688.46
2019-02-21T10:53:07.536Z,100692.78
2019-02-21T10:53:47.037Z,100695.50
2019-02-21T10:55:04.572Z,100695.81
2019-02-21T10:56:05.818Z,100699.09
2019-02-21T10:56:45.833Z,100696.14
2019-02-21T10:57:45.755Z,100697.50
2019-02-21T10:58:54.678Z,100697.82
2019-02-21T10:59:46.673Z,100696.22
2019-02-21T11:00:26.058Z,100702.83
2019-02-21T11:01:21.016Z,100711.86
2019-02-21T11:02:18.905Z,100710.50
2019-02-21T11:03:21.621Z,100719.53
2019-02-21T11:04:17.586Z,100717.70
2019-02-21T11:04:55.220Z,100718.66
2019-02-21T11:05:56.222Z,100720.49
2019-02-21T11:06:46.592Z,100719.61
2019-02-21T11:08:42.005Z,100723.50
2019-02-21T11:09:48.372Z,100725.41
2019-02-21T11:10:37.733Z,100726.53
2019-02-21T11:12:59.735Z,100722.59
2019-02-21T11:15:42.300Z,100725.38
2019-02-21T11:16:43.484Z,100724.42
2019-02-21T11:19:00.935Z,100724.26
2019-02-21T11:19:55.549Z,100715.14
2019-02-21T11:21:12.455Z,100714.42
2019-02-21T11:21:59.677Z,100716.62